sensor_id;sensor_type;location;lat;lon;timestamp;P1;durP1;ratioP1;P2;durP2;ratioP2
21890;SDS011;11110;52.386;16.940;2023-05-28T00:02:08;10.90;;;6.00;;
21890;SDS011;11110;52.386;16.940;2023-05-28T00:04:36;12.63;;;6.57;;
21890;SDS011;11110;52.386;16.940;2023-05-28T00:07:05;12.73;;;6.30;;
21890;SDS011;11110;52.386;16.940;2023-05-28T00:09:37;14.10;;;5.90;;
21890;SDS011;11110;52.386;16.940;2023-05-28T00:12:08;13.60;;;6.23;;
21890;SDS011;11110;52.386;16.940;2023-05-28T00:14:37;13.53;;;6.47;;
21890;SDS011;11110;52.386;16.940;2023-05-28T00:17:06;11.07;;;5.83;;
21890;SDS011;11110;52.386;16.940;2023-05-28T00:19:35;10.33;;;6.13;;
21890;SDS011;11110;52.386;16.940;2023-05-28T00:22:04;9.73;;;6.37;;
21890;SDS011;11110;52.386;16.940;2023-05-28T00:24:32;10.87;;;6.60;;
21890;SDS011;11110;52.386;16.940;2023-05-28T00:27:01;12.93;;;6.20;;
21890;SDS011;11110;52.386;16.940;2023-05-28T00:29:30;10.97;;;5.77;;
21890;SDS011;11110;52.386;16.940;2023-05-28T00:32:00;11.90;;;7.27;;
21890;SDS011;11110;52.386;16.940;2023-05-28T00:34:29;9.47;;;6.40;;
21890;SDS011;11110;52.386;16.940;2023-05-28T00:36:57;14.10;;;6.53;;
21890;SDS011;11110;52.386;16.940;2023-05-28T00:39:26;7.67;;;5.77;;
21890;SDS011;11110;52.386;16.940;2023-05-28T00:42:00;10.90;;;6.20;;
21890;SDS011;11110;52.386;16.940;2023-05-28T00:44:29;11.80;;;6.60;;
21890;SDS011;11110;52.386;16.940;2023-05-28T00:47:00;12.53;;;6.50;;
21890;SDS011;11110;52.386;16.940;2023-05-28T00:49:30;12.10;;;5.93;;
21890;SDS011;11110;52.386;16.940;2023-05-28T00:51:59;10.07;;;6.00;;
21890;SDS011;11110;52.386;16.940;2023-05-28T00:54:29;11.93;;;6.73;;
21890;SDS011;11110;52.386;16.940;2023-05-28T00:56:58;11.57;;;6.37;;
21890;SDS011;11110;52.386;16.940;2023-05-28T00:59:27;15.93;;;6.90;;
21890;SDS011;11110;52.386;16.940;2023-05-28T01:01:57;12.17;;;6.63;;
21890;SDS011;11110;52.386;16.940;2023-05-28T01:04:28;11.13;;;6.60;;
21890;SDS011;11110;52.386;16.940;2023-05-28T01:06:59;11.13;;;6.77;;
21890;SDS011;11110;52.386;16.940;2023-05-28T01:09:28;10.70;;;6.40;;
21890;SDS011;11110;52.386;16.940;2023-05-28T01:11:57;12.13;;;6.27;;
21890;SDS011;11110;52.386;16.940;2023-05-28T01:14:26;11.93;;;5.80;;
21890;SDS011;11110;52.386;16.940;2023-05-28T01:16:56;9.93;;;6.27;;
21890;SDS011;11110;52.386;16.940;2023-05-28T01:19:28;12.97;;;6.03;;
21890;SDS011;11110;52.386;16.940;2023-05-28T01:22:00;10.80;;;5.70;;
21890;SDS011;11110;52.386;16.940;2023-05-28T01:24:33;10.67;;;5.83;;
21890;SDS011;11110;52.386;16.940;2023-05-28T01:27:03;11.00;;;6.40;;
21890;SDS011;11110;52.386;16.940;2023-05-28T01:29:32;10.47;;;6.33;;
21890;SDS011;11110;52.386;16.940;2023-05-28T01:32:02;11.60;;;6.53;;
21890;SDS011;11110;52.386;16.940;2023-05-28T01:34:32;10.27;;;6.27;;
21890;SDS011;11110;52.386;16.940;2023-05-28T01:37:03;9.37;;;5.70;;
21890;SDS011;11110;52.386;16.940;2023-05-28T01:39:39;9.53;;;5.87;;
21890;SDS011;11110;52.386;16.940;2023-05-28T01:42:12;10.63;;;6.37;;
21890;SDS011;11110;52.386;16.940;2023-05-28T01:44:40;11.27;;;6.50;;
21890;SDS011;11110;52.386;16.940;2023-05-28T01:47:11;11.33;;;7.20;;
21890;SDS011;11110;52.386;16.940;2023-05-28T01:49:41;13.23;;;6.17;;
21890;SDS011;11110;52.386;16.940;2023-05-28T01:52:12;8.97;;;5.83;;
21890;SDS011;11110;52.386;16.940;2023-05-28T01:54:42;8.77;;;5.93;;
21890;SDS011;11110;52.386;16.940;2023-05-28T01:57:11;13.10;;;6.00;;
21890;SDS011;11110;52.386;16.940;2023-05-28T01:59:39;11.17;;;5.37;;
21890;SDS011;11110;52.386;16.940;2023-05-28T02:02:09;10.40;;;5.97;;
21890;SDS011;11110;52.386;16.940;2023-05-28T02:04:38;12.93;;;5.77;;
21890;SDS011;11110;52.386;16.940;2023-05-28T02:07:07;10.00;;;5.80;;
21890;SDS011;11110;52.386;16.940;2023-05-28T02:09:35;8.37;;;5.80;;
21890;SDS011;11110;52.386;16.940;2023-05-28T02:12:05;10.67;;;5.87;;
21890;SDS011;11110;52.386;16.940;2023-05-28T02:14:33;11.70;;;6.13;;
21890;SDS011;11110;52.386;16.940;2023-05-28T02:17:02;8.73;;;5.43;;
21890;SDS011;11110;52.386;16.940;2023-05-28T02:19:31;9.77;;;5.60;;
21890;SDS011;11110;52.386;16.940;2023-05-28T02:22:01;8.57;;;5.37;;
21890;SDS011;11110;52.386;16.940;2023-05-28T02:24:30;8.80;;;5.57;;
21890;SDS011;11110;52.386;16.940;2023-05-28T02:26:59;9.60;;;5.60;;
21890;SDS011;11110;52.386;16.940;2023-05-28T02:29:32;9.10;;;5.33;;
21890;SDS011;11110;52.386;16.940;2023-05-28T02:32:01;8.37;;;5.67;;
21890;SDS011;11110;52.386;16.940;2023-05-28T02:34:31;11.13;;;5.37;;
21890;SDS011;11110;52.386;16.940;2023-05-28T02:37:03;8.90;;;4.97;;
21890;SDS011;11110;52.386;16.940;2023-05-28T02:39:32;10.90;;;5.37;;
21890;SDS011;11110;52.386;16.940;2023-05-28T02:42:01;7.50;;;5.20;;
21890;SDS011;11110;52.386;16.940;2023-05-28T02:44:31;10.10;;;5.30;;
21890;SDS011;11110;52.386;16.940;2023-05-28T02:47:00;11.77;;;6.07;;
21890;SDS011;11110;52.386;16.940;2023-05-28T02:49:28;9.40;;;5.57;;
21890;SDS011;11110;52.386;16.940;2023-05-28T02:51:56;13.50;;;5.70;;
21890;SDS011;11110;52.386;16.940;2023-05-28T02:54:28;10.50;;;5.97;;
21890;SDS011;11110;52.386;16.940;2023-05-28T02:56:56;8.53;;;5.33;;
21890;SDS011;11110;52.386;16.940;2023-05-28T02:59:25;8.43;;;4.97;;
21890;SDS011;11110;52.386;16.940;2023-05-28T03:01:55;11.00;;;5.40;;
21890;SDS011;11110;52.386;16.940;2023-05-28T03:04:25;10.40;;;5.70;;
21890;SDS011;11110;52.386;16.940;2023-05-28T03:06:54;10.60;;;5.60;;
21890;SDS011;11110;52.386;16.940;2023-05-28T03:09:22;9.70;;;4.90;;
21890;SDS011;11110;52.386;16.940;2023-05-28T03:11:52;8.33;;;5.00;;
21890;SDS011;11110;52.386;16.940;2023-05-28T03:14:21;10.03;;;5.50;;
21890;SDS011;11110;52.386;16.940;2023-05-28T03:16:51;10.87;;;5.67;;
21890;SDS011;11110;52.386;16.940;2023-05-28T03:19:23;6.33;;;5.30;;
21890;SDS011;11110;52.386;16.940;2023-05-28T03:21:53;11.13;;;5.57;;
21890;SDS011;11110;52.386;16.940;2023-05-28T03:24:24;7.10;;;4.80;;
21890;SDS011;11110;52.386;16.940;2023-05-28T03:26:54;11.00;;;5.63;;
21890;SDS011;11110;52.386;16.940;2023-05-28T03:29:23;8.93;;;5.43;;
21890;SDS011;11110;52.386;16.940;2023-05-28T03:32:03;9.53;;;5.20;;
21890;SDS011;11110;52.386;16.940;2023-05-28T03:34:33;13.37;;;5.97;;
21890;SDS011;11110;52.386;16.940;2023-05-28T03:37:03;9.17;;;5.70;;
21890;SDS011;11110;52.386;16.940;2023-05-28T03:39:34;8.87;;;5.40;;
21890;SDS011;11110;52.386;16.940;2023-05-28T03:42:02;11.53;;;6.40;;
21890;SDS011;11110;52.386;16.940;2023-05-28T03:44:31;10.60;;;5.73;;
21890;SDS011;11110;52.386;16.940;2023-05-28T03:47:00;13.63;;;5.97;;
21890;SDS011;11110;52.386;16.940;2023-05-28T03:49:29;8.90;;;5.73;;
21890;SDS011;11110;52.386;16.940;2023-05-28T03:51:59;8.87;;;5.20;;
21890;SDS011;11110;52.386;16.940;2023-05-28T03:54:33;8.40;;;5.77;;
21890;SDS011;11110;52.386;16.940;2023-05-28T03:57:02;12.23;;;5.83;;
21890;SDS011;11110;52.386;16.940;2023-05-28T03:59:30;10.63;;;5.57;;
21890;SDS011;11110;52.386;16.940;2023-05-28T04:01:59;7.40;;;5.17;;
21890;SDS011;11110;52.386;16.940;2023-05-28T04:04:27;10.03;;;5.13;;
21890;SDS011;11110;52.386;16.940;2023-05-28T04:06:56;7.83;;;5.53;;
21890;SDS011;11110;52.386;16.940;2023-05-28T04:09:26;9.87;;;5.07;;
21890;SDS011;11110;52.386;16.940;2023-05-28T04:11:55;9.73;;;5.30;;
21890;SDS011;11110;52.386;16.940;2023-05-28T04:14:23;12.17;;;5.07;;
21890;SDS011;11110;52.386;16.940;2023-05-28T04:16:52;9.50;;;5.00;;
21890;SDS011;11110;52.386;16.940;2023-05-28T04:19:21;11.03;;;5.20;;
21890;SDS011;11110;52.386;16.940;2023-05-28T04:21:50;11.20;;;5.57;;
21890;SDS011;11110;52.386;16.940;2023-05-28T04:24:19;8.13;;;5.67;;
21890;SDS011;11110;52.386;16.940;2023-05-28T04:26:48;7.40;;;4.80;;
21890;SDS011;11110;52.386;16.940;2023-05-28T04:29:18;8.90;;;5.43;;
21890;SDS011;11110;52.386;16.940;2023-05-28T04:31:50;8.03;;;4.90;;
21890;SDS011;11110;52.386;16.940;2023-05-28T04:34:18;8.00;;;4.77;;
21890;SDS011;11110;52.386;16.940;2023-05-28T04:36:48;8.27;;;4.33;;
21890;SDS011;11110;52.386;16.940;2023-05-28T04:39:18;8.63;;;5.10;;
21890;SDS011;11110;52.386;16.940;2023-05-28T04:41:49;6.27;;;4.50;;
21890;SDS011;11110;52.386;16.940;2023-05-28T04:44:17;8.93;;;4.47;;
21890;SDS011;11110;52.386;16.940;2023-05-28T04:46:46;9.87;;;4.67;;
21890;SDS011;11110;52.386;16.940;2023-05-28T04:49:15;6.17;;;3.97;;
21890;SDS011;11110;52.386;16.940;2023-05-28T04:51:43;6.33;;;4.37;;
21890;SDS011;11110;52.386;16.940;2023-05-28T04:54:12;7.10;;;4.60;;
21890;SDS011;11110;52.386;16.940;2023-05-28T04:56:43;7.60;;;4.13;;
21890;SDS011;11110;52.386;16.940;2023-05-28T04:59:12;6.53;;;3.93;;
21890;SDS011;11110;52.386;16.940;2023-05-28T05:01:42;8.07;;;4.10;;
21890;SDS011;11110;52.386;16.940;2023-05-28T05:04:11;7.60;;;3.80;;
21890;SDS011;11110;52.386;16.940;2023-05-28T05:06:41;5.83;;;3.93;;
21890;SDS011;11110;52.386;16.940;2023-05-28T05:09:09;5.80;;;3.60;;
21890;SDS011;11110;52.386;16.940;2023-05-28T05:11:38;6.83;;;4.17;;
21890;SDS011;11110;52.386;16.940;2023-05-28T05:14:08;5.20;;;3.83;;
21890;SDS011;11110;52.386;16.940;2023-05-28T05:16:37;6.43;;;4.07;;
21890;SDS011;11110;52.386;16.940;2023-05-28T05:19:06;9.30;;;3.97;;
21890;SDS011;11110;52.386;16.940;2023-05-28T05:21:34;12.87;;;3.93;;
21890;SDS011;11110;52.386;16.940;2023-05-28T05:24:03;5.13;;;3.87;;
21890;SDS011;11110;52.386;16.940;2023-05-28T05:26:32;5.50;;;3.73;;
21890;SDS011;11110;52.386;16.940;2023-05-28T05:29:01;7.83;;;3.60;;
21890;SDS011;11110;52.386;16.940;2023-05-28T05:31:31;7.43;;;4.03;;
21890;SDS011;11110;52.386;16.940;2023-05-28T05:34:00;6.60;;;4.00;;
21890;SDS011;11110;52.386;16.940;2023-05-28T05:36:47;5.43;;;3.53;;
21890;SDS011;11110;52.386;16.940;2023-05-28T05:39:34;6.70;;;3.63;;
21890;SDS011;11110;52.386;16.940;2023-05-28T05:42:03;10.13;;;3.90;;
21890;SDS011;11110;52.386;16.940;2023-05-28T05:44:38;4.70;;;3.40;;
21890;SDS011;11110;52.386;16.940;2023-05-28T05:47:09;7.77;;;3.40;;
21890;SDS011;11110;52.386;16.940;2023-05-28T05:49:38;5.97;;;3.53;;
21890;SDS011;11110;52.386;16.940;2023-05-28T05:52:07;5.50;;;3.80;;
21890;SDS011;11110;52.386;16.940;2023-05-28T05:54:37;6.43;;;3.17;;
21890;SDS011;11110;52.386;16.940;2023-05-28T05:57:06;6.40;;;3.53;;
21890;SDS011;11110;52.386;16.940;2023-05-28T05:59:37;6.83;;;3.40;;
21890;SDS011;11110;52.386;16.940;2023-05-28T06:02:06;5.33;;;3.33;;
21890;SDS011;11110;52.386;16.940;2023-05-28T06:04:37;6.23;;;3.73;;
21890;SDS011;11110;52.386;16.940;2023-05-28T06:07:35;5.73;;;3.33;;
21890;SDS011;11110;52.386;16.940;2023-05-28T06:10:18;4.87;;;3.63;;
21890;SDS011;11110;52.386;16.940;2023-05-28T06:12:48;7.10;;;3.20;;
21890;SDS011;11110;52.386;16.940;2023-05-28T06:15:17;6.70;;;3.47;;
21890;SDS011;11110;52.386;16.940;2023-05-28T06:17:47;6.70;;;3.80;;
21890;SDS011;11110;52.386;16.940;2023-05-28T06:20:16;11.17;;;3.73;;
21890;SDS011;11110;52.386;16.940;2023-05-28T06:22:47;9.77;;;4.83;;
21890;SDS011;11110;52.386;16.940;2023-05-28T06:25:15;7.70;;;3.73;;
21890;SDS011;11110;52.386;16.940;2023-05-28T06:27:45;7.43;;;4.37;;
21890;SDS011;11110;52.386;16.940;2023-05-28T06:30:14;5.20;;;3.50;;
21890;SDS011;11110;52.386;16.940;2023-05-28T06:32:43;6.43;;;3.77;;
21890;SDS011;11110;52.386;16.940;2023-05-28T06:35:13;7.07;;;3.60;;
21890;SDS011;11110;52.386;16.940;2023-05-28T06:37:42;7.87;;;3.50;;
21890;SDS011;11110;52.386;16.940;2023-05-28T06:40:11;7.17;;;3.27;;
21890;SDS011;11110;52.386;16.940;2023-05-28T06:42:41;5.13;;;3.40;;
21890;SDS011;11110;52.386;16.940;2023-05-28T06:45:33;7.53;;;2.90;;
21890;SDS011;11110;52.386;16.940;2023-05-28T06:48:02;4.67;;;3.10;;
21890;SDS011;11110;52.386;16.940;2023-05-28T06:50:32;5.77;;;3.37;;
21890;SDS011;11110;52.386;16.940;2023-05-28T06:53:02;6.93;;;2.85;;
21890;SDS011;11110;52.386;16.940;2023-05-28T06:55:31;5.00;;;2.88;;
21890;SDS011;11110;52.386;16.940;2023-05-28T06:58:19;5.80;;;2.97;;
21890;SDS011;11110;52.386;16.940;2023-05-28T07:01:03;5.18;;;2.70;;
21890;SDS011;11110;52.386;16.940;2023-05-28T07:03:46;5.85;;;2.83;;
21890;SDS011;11110;52.386;16.940;2023-05-28T07:06:20;6.18;;;2.75;;
21890;SDS011;11110;52.386;16.940;2023-05-28T07:08:49;5.07;;;2.45;;
21890;SDS011;11110;52.386;16.940;2023-05-28T07:11:18;6.32;;;2.20;;
21890;SDS011;11110;52.386;16.940;2023-05-28T07:13:47;4.47;;;2.00;;
21890;SDS011;11110;52.386;16.940;2023-05-28T07:16:15;4.15;;;1.98;;
21890;SDS011;11110;52.386;16.940;2023-05-28T07:18:44;4.57;;;2.17;;
21890;SDS011;11110;52.386;16.940;2023-05-28T07:21:13;4.20;;;1.95;;
21890;SDS011;11110;52.386;16.940;2023-05-28T07:23:46;7.85;;;2.25;;
21890;SDS011;11110;52.386;16.940;2023-05-28T07:26:15;3.60;;;2.10;;
21890;SDS011;11110;52.386;16.940;2023-05-28T07:28:44;3.85;;;2.20;;
21890;SDS011;11110;52.386;16.940;2023-05-28T07:31:12;3.92;;;2.25;;
21890;SDS011;11110;52.386;16.940;2023-05-28T07:33:44;4.90;;;2.25;;
21890;SDS011;11110;52.386;16.940;2023-05-28T07:36:13;5.55;;;2.30;;
21890;SDS011;11110;52.386;16.940;2023-05-28T07:38:42;2.80;;;1.95;;
21890;SDS011;11110;52.386;16.940;2023-05-28T07:41:12;4.63;;;1.80;;
21890;SDS011;11110;52.386;16.940;2023-05-28T07:43:47;3.30;;;1.63;;
21890;SDS011;11110;52.386;16.940;2023-05-28T07:46:19;6.07;;;2.08;;
21890;SDS011;11110;52.386;16.940;2023-05-28T07:48:53;4.68;;;1.65;;
21890;SDS011;11110;52.386;16.940;2023-05-28T07:51:25;3.65;;;2.05;;
21890;SDS011;11110;52.386;16.940;2023-05-28T07:54:03;1.70;;;1.60;;
21890;SDS011;11110;52.386;16.940;2023-05-28T07:56:34;6.22;;;2.08;;
21890;SDS011;11110;52.386;16.940;2023-05-28T07:59:04;5.13;;;1.73;;
21890;SDS011;11110;52.386;16.940;2023-05-28T08:01:33;2.65;;;1.70;;
21890;SDS011;11110;52.386;16.940;2023-05-28T08:04:04;5.05;;;1.80;;
21890;SDS011;11110;52.386;16.940;2023-05-28T08:06:36;3.60;;;1.90;;
21890;SDS011;11110;52.386;16.940;2023-05-28T08:09:09;2.67;;;2.10;;
21890;SDS011;11110;52.386;16.940;2023-05-28T08:11:40;3.35;;;1.77;;
21890;SDS011;11110;52.386;16.940;2023-05-28T08:14:09;3.92;;;1.90;;
21890;SDS011;11110;52.386;16.940;2023-05-28T08:16:40;3.50;;;1.65;;
21890;SDS011;11110;52.386;16.940;2023-05-28T08:19:26;3.45;;;1.73;;
21890;SDS011;11110;52.386;16.940;2023-05-28T08:21:58;2.90;;;1.48;;
21890;SDS011;11110;52.386;16.940;2023-05-28T08:24:27;2.22;;;1.52;;
21890;SDS011;11110;52.386;16.940;2023-05-28T08:26:57;3.53;;;1.40;;
21890;SDS011;11110;52.386;16.940;2023-05-28T08:29:26;2.25;;;1.33;;
21890;SDS011;11110;52.386;16.940;2023-05-28T08:31:59;2.65;;;1.52;;
21890;SDS011;11110;52.386;16.940;2023-05-28T08:34:39;2.50;;;1.65;;
21890;SDS011;11110;52.386;16.940;2023-05-28T08:37:08;5.18;;;1.60;;
21890;SDS011;11110;52.386;16.940;2023-05-28T08:39:51;1.88;;;1.40;;
21890;SDS011;11110;52.386;16.940;2023-05-28T08:42:21;2.00;;;1.33;;
21890;SDS011;11110;52.386;16.940;2023-05-28T08:44:49;1.95;;;1.23;;
21890;SDS011;11110;52.386;16.940;2023-05-28T08:47:19;6.20;;;1.52;;
21890;SDS011;11110;52.386;16.940;2023-05-28T08:49:56;4.20;;;1.70;;
21890;SDS011;11110;52.386;16.940;2023-05-28T08:52:35;2.90;;;1.50;;
21890;SDS011;11110;52.386;16.940;2023-05-28T08:55:04;2.75;;;1.40;;
21890;SDS011;11110;52.386;16.940;2023-05-28T08:57:41;3.70;;;1.60;;
21890;SDS011;11110;52.386;16.940;2023-05-28T09:00:10;3.75;;;1.58;;
21890;SDS011;11110;52.386;16.940;2023-05-28T09:03:09;3.42;;;1.40;;
21890;SDS011;11110;52.386;16.940;2023-05-28T09:05:38;3.05;;;1.30;;
21890;SDS011;11110;52.386;16.940;2023-05-28T09:08:07;2.03;;;1.40;;
21890;SDS011;11110;52.386;16.940;2023-05-28T09:10:37;1.83;;;1.40;;
21890;SDS011;11110;52.386;16.940;2023-05-28T09:13:09;1.92;;;1.40;;
21890;SDS011;11110;52.386;16.940;2023-05-28T09:15:38;2.65;;;1.30;;
21890;SDS011;11110;52.386;16.940;2023-05-28T09:18:09;4.82;;;1.40;;
21890;SDS011;11110;52.386;16.940;2023-05-28T09:20:38;1.55;;;1.38;;
21890;SDS011;11110;52.386;16.940;2023-05-28T09:23:07;2.00;;;1.25;;
21890;SDS011;11110;52.386;16.940;2023-05-28T09:25:55;2.03;;;1.80;;
21890;SDS011;11110;52.386;16.940;2023-05-28T09:28:30;5.50;;;1.50;;
21890;SDS011;11110;52.386;16.940;2023-05-28T09:31:02;1.80;;;1.15;;
21890;SDS011;11110;52.386;16.940;2023-05-28T09:33:32;1.75;;;1.20;;
21890;SDS011;11110;52.386;16.940;2023-05-28T09:36:01;2.65;;;1.20;;
21890;SDS011;11110;52.386;16.940;2023-05-28T09:38:37;3.45;;;1.50;;
21890;SDS011;11110;52.386;16.940;2023-05-28T09:41:16;4.28;;;1.30;;
21890;SDS011;11110;52.386;16.940;2023-05-28T09:43:54;3.60;;;1.35;;
21890;SDS011;11110;52.386;16.940;2023-05-28T09:46:28;3.83;;;1.30;;
21890;SDS011;11110;52.386;16.940;2023-05-28T09:48:58;3.13;;;1.38;;
21890;SDS011;11110;52.386;16.940;2023-05-28T09:51:28;3.70;;;1.48;;
21890;SDS011;11110;52.386;16.940;2023-05-28T09:53:58;2.83;;;1.27;;
21890;SDS011;11110;52.386;16.940;2023-05-28T09:56:29;2.35;;;1.20;;
21890;SDS011;11110;52.386;16.940;2023-05-28T09:59:02;1.98;;;1.25;;
21890;SDS011;11110;52.386;16.940;2023-05-28T10:01:36;1.77;;;1.23;;
21890;SDS011;11110;52.386;16.940;2023-05-28T10:04:10;2.83;;;1.33;;
21890;SDS011;11110;52.386;16.940;2023-05-28T10:06:43;2.13;;;1.40;;
21890;SDS011;11110;52.386;16.940;2023-05-28T10:09:14;3.60;;;1.30;;
21890;SDS011;11110;52.386;16.940;2023-05-28T10:11:44;1.65;;;1.10;;
21890;SDS011;11110;52.386;16.940;2023-05-28T10:14:20;2.60;;;1.35;;
21890;SDS011;11110;52.386;16.940;2023-05-28T10:16:50;3.00;;;1.30;;
21890;SDS011;11110;52.386;16.940;2023-05-28T10:19:19;4.13;;;1.40;;
21890;SDS011;11110;52.386;16.940;2023-05-28T10:21:49;2.97;;;1.48;;
21890;SDS011;11110;52.386;16.940;2023-05-28T10:24:18;2.33;;;1.10;;
21890;SDS011;11110;52.386;16.940;2023-05-28T10:26:47;2.50;;;1.30;;
21890;SDS011;11110;52.386;16.940;2023-05-28T10:29:16;1.85;;;1.30;;
21890;SDS011;11110;52.386;16.940;2023-05-28T10:31:46;1.25;;;1.15;;
21890;SDS011;11110;52.386;16.940;2023-05-28T10:34:28;4.07;;;1.50;;
21890;SDS011;11110;52.386;16.940;2023-05-28T10:37:00;2.38;;;1.73;;
21890;SDS011;11110;52.386;16.940;2023-05-28T10:39:39;3.28;;;1.40;;
21890;SDS011;11110;52.386;16.940;2023-05-28T10:42:09;2.08;;;1.52;;
21890;SDS011;11110;52.386;16.940;2023-05-28T10:44:48;1.95;;;1.60;;
21890;SDS011;11110;52.386;16.940;2023-05-28T10:47:19;1.70;;;1.38;;
21890;SDS011;11110;52.386;16.940;2023-05-28T10:49:59;3.72;;;1.33;;
21890;SDS011;11110;52.386;16.940;2023-05-28T10:52:43;3.08;;;1.25;;
21890;SDS011;11110;52.386;16.940;2023-05-28T10:55:29;1.52;;;1.23;;
21890;SDS011;11110;52.386;16.940;2023-05-28T10:58:21;4.43;;;1.20;;
21890;SDS011;11110;52.386;16.940;2023-05-28T11:00:59;2.60;;;1.50;;
21890;SDS011;11110;52.386;16.940;2023-05-28T11:03:38;3.22;;;1.50;;
21890;SDS011;11110;52.386;16.940;2023-05-28T11:06:08;2.30;;;1.10;;
21890;SDS011;11110;52.386;16.940;2023-05-28T11:08:39;6.20;;;2.17;;
21890;SDS011;11110;52.386;16.940;2023-05-28T11:11:10;3.13;;;1.50;;
21890;SDS011;11110;52.386;16.940;2023-05-28T11:13:43;4.00;;;1.40;;
21890;SDS011;11110;52.386;16.940;2023-05-28T11:16:13;1.90;;;1.20;;
21890;SDS011;11110;52.386;16.940;2023-05-28T11:19:00;3.30;;;1.20;;
21890;SDS011;11110;52.386;16.940;2023-05-28T11:21:29;2.03;;;1.30;;
21890;SDS011;11110;52.386;16.940;2023-05-28T11:24:00;1.45;;;1.10;;
21890;SDS011;11110;52.386;16.940;2023-05-28T11:26:30;3.22;;;1.40;;
21890;SDS011;11110;52.386;16.940;2023-05-28T11:29:00;7.50;;;1.38;;
21890;SDS011;11110;52.386;16.940;2023-05-28T11:31:37;3.88;;;1.20;;
21890;SDS011;11110;52.386;16.940;2023-05-28T11:34:08;1.75;;;1.23;;
21890;SDS011;11110;52.386;16.940;2023-05-28T11:36:38;1.88;;;1.17;;
21890;SDS011;11110;52.386;16.940;2023-05-28T11:39:07;2.65;;;1.70;;
21890;SDS011;11110;52.386;16.940;2023-05-28T11:41:35;3.13;;;1.40;;
21890;SDS011;11110;52.386;16.940;2023-05-28T11:44:17;2.00;;;1.42;;
21890;SDS011;11110;52.386;16.940;2023-05-28T11:46:49;3.53;;;1.80;;
21890;SDS011;11110;52.386;16.940;2023-05-28T11:49:20;3.42;;;1.48;;
21890;SDS011;11110;52.386;16.940;2023-05-28T11:51:49;3.53;;;1.40;;
21890;SDS011;11110;52.386;16.940;2023-05-28T11:54:21;3.45;;;1.17;;
21890;SDS011;11110;52.386;16.940;2023-05-28T11:56:49;3.53;;;1.23;;
21890;SDS011;11110;52.386;16.940;2023-05-28T11:59:20;3.13;;;1.30;;
21890;SDS011;11110;52.386;16.940;2023-05-28T12:01:53;3.40;;;1.40;;
21890;SDS011;11110;52.386;16.940;2023-05-28T12:04:23;2.20;;;1.30;;
21890;SDS011;11110;52.386;16.940;2023-05-28T12:06:53;2.95;;;1.08;;
21890;SDS011;11110;52.386;16.940;2023-05-28T12:09:22;1.45;;;1.35;;
21890;SDS011;11110;52.386;16.940;2023-05-28T12:12:04;2.33;;;1.30;;
21890;SDS011;11110;52.386;16.940;2023-05-28T12:14:34;2.35;;;1.27;;
21890;SDS011;11110;52.386;16.940;2023-05-28T12:17:03;1.92;;;1.25;;
21890;SDS011;11110;52.386;16.940;2023-05-28T12:19:34;4.93;;;1.50;;
21890;SDS011;11110;52.386;16.940;2023-05-28T12:22:04;3.50;;;1.42;;
21890;SDS011;11110;52.386;16.940;2023-05-28T12:24:46;2.03;;;1.33;;
21890;SDS011;11110;52.386;16.940;2023-05-28T12:27:16;4.18;;;1.42;;
21890;SDS011;11110;52.386;16.940;2023-05-28T12:29:45;2.80;;;1.35;;
21890;SDS011;11110;52.386;16.940;2023-05-28T12:32:14;4.60;;;1.27;;
21890;SDS011;11110;52.386;16.940;2023-05-28T12:34:44;5.60;;;1.38;;
21890;SDS011;11110;52.386;16.940;2023-05-28T12:37:12;5.43;;;1.20;;
21890;SDS011;11110;52.386;16.940;2023-05-28T12:39:40;3.65;;;1.70;;
21890;SDS011;11110;52.386;16.940;2023-05-28T12:42:09;2.95;;;1.33;;
21890;SDS011;11110;52.386;16.940;2023-05-28T12:44:38;1.77;;;1.20;;
21890;SDS011;11110;52.386;16.940;2023-05-28T12:47:06;2.58;;;1.48;;
21890;SDS011;11110;52.386;16.940;2023-05-28T12:49:35;2.03;;;1.30;;
21890;SDS011;11110;52.386;16.940;2023-05-28T12:52:05;2.30;;;1.20;;
21890;SDS011;11110;52.386;16.940;2023-05-28T12:54:34;4.18;;;1.70;;
21890;SDS011;11110;52.386;16.940;2023-05-28T12:57:02;2.13;;;1.50;;
21890;SDS011;11110;52.386;16.940;2023-05-28T12:59:32;2.05;;;1.35;;
21890;SDS011;11110;52.386;16.940;2023-05-28T13:02:00;4.47;;;1.10;;
21890;SDS011;11110;52.386;16.940;2023-05-28T13:04:30;1.58;;;1.30;;
21890;SDS011;11110;52.386;16.940;2023-05-28T13:06:58;3.05;;;1.30;;
21890;SDS011;11110;52.386;16.940;2023-05-28T13:09:28;2.88;;;1.38;;
21890;SDS011;11110;52.386;16.940;2023-05-28T13:11:57;2.00;;;1.30;;
21890;SDS011;11110;52.386;16.940;2023-05-28T13:14:25;4.25;;;1.50;;
21890;SDS011;11110;52.386;16.940;2023-05-28T13:16:54;2.00;;;1.30;;
21890;SDS011;11110;52.386;16.940;2023-05-28T13:19:23;2.28;;;1.50;;
21890;SDS011;11110;52.386;16.940;2023-05-28T13:21:51;2.58;;;1.70;;
21890;SDS011;11110;52.386;16.940;2023-05-28T13:24:20;1.75;;;1.10;;
21890;SDS011;11110;52.386;16.940;2023-05-28T13:26:53;3.08;;;1.30;;
21890;SDS011;11110;52.386;16.940;2023-05-28T13:29:22;2.05;;;1.65;;
21890;SDS011;11110;52.386;16.940;2023-05-28T13:31:51;3.25;;;1.30;;
21890;SDS011;11110;52.386;16.940;2023-05-28T13:34:19;2.90;;;1.52;;
21890;SDS011;11110;52.386;16.940;2023-05-28T13:36:48;3.20;;;1.30;;
21890;SDS011;11110;52.386;16.940;2023-05-28T13:39:16;2.92;;;1.27;;
21890;SDS011;11110;52.386;16.940;2023-05-28T13:41:47;2.28;;;1.48;;
21890;SDS011;11110;52.386;16.940;2023-05-28T13:44:17;2.50;;;1.70;;
21890;SDS011;11110;52.386;16.940;2023-05-28T13:46:47;2.28;;;1.60;;
21890;SDS011;11110;52.386;16.940;2023-05-28T13:49:16;2.78;;;1.30;;
21890;SDS011;11110;52.386;16.940;2023-05-28T13:51:44;3.55;;;1.88;;
21890;SDS011;11110;52.386;16.940;2023-05-28T13:54:14;2.03;;;1.05;;
21890;SDS011;11110;52.386;16.940;2023-05-28T13:56:42;2.65;;;1.67;;
21890;SDS011;11110;52.386;16.940;2023-05-28T13:59:11;2.25;;;1.50;;
21890;SDS011;11110;52.386;16.940;2023-05-28T14:01:41;3.13;;;1.80;;
21890;SDS011;11110;52.386;16.940;2023-05-28T14:04:10;2.25;;;1.58;;
21890;SDS011;11110;52.386;16.940;2023-05-28T14:06:38;3.30;;;1.38;;
21890;SDS011;11110;52.386;16.940;2023-05-28T14:09:07;1.85;;;1.30;;
21890;SDS011;11110;52.386;16.940;2023-05-28T14:11:35;3.33;;;1.35;;
21890;SDS011;11110;52.386;16.940;2023-05-28T14:14:24;5.63;;;1.50;;
21890;SDS011;11110;52.386;16.940;2023-05-28T14:16:54;3.55;;;1.27;;
21890;SDS011;11110;52.386;16.940;2023-05-28T14:19:23;4.40;;;1.63;;
21890;SDS011;11110;52.386;16.940;2023-05-28T14:21:51;4.07;;;1.60;;
21890;SDS011;11110;52.386;16.940;2023-05-28T14:24:20;5.05;;;1.45;;
21890;SDS011;11110;52.386;16.940;2023-05-28T14:26:48;3.63;;;1.88;;
21890;SDS011;11110;52.386;16.940;2023-05-28T14:29:17;6.35;;;1.35;;
21890;SDS011;11110;52.386;16.940;2023-05-28T14:31:45;2.95;;;1.25;;
21890;SDS011;11110;52.386;16.940;2023-05-28T14:34:16;4.18;;;1.33;;
21890;SDS011;11110;52.386;16.940;2023-05-28T14:36:44;4.20;;;1.52;;
21890;SDS011;11110;52.386;16.940;2023-05-28T14:39:13;5.50;;;1.30;;
21890;SDS011;11110;52.386;16.940;2023-05-28T14:41:41;1.83;;;1.45;;
21890;SDS011;11110;52.386;16.940;2023-05-28T14:44:09;2.33;;;1.67;;
21890;SDS011;11110;52.386;16.940;2023-05-28T14:46:38;3.45;;;1.42;;
21890;SDS011;11110;52.386;16.940;2023-05-28T14:49:07;4.50;;;1.63;;
21890;SDS011;11110;52.386;16.940;2023-05-28T14:51:36;1.65;;;1.38;;
21890;SDS011;11110;52.386;16.940;2023-05-28T14:54:05;2.05;;;1.25;;